createdAt,value
2022-12-01T00:03:26.286Z,30.12
2022-12-01T00:08:29.383Z,32.22
2022-12-01T00:13:32.198Z,29.93
2022-12-01T00:18:34.311Z,28.20
2022-12-01T00:23:36.567Z,31.63
2022-12-01T00:28:39.231Z,26.42
2022-12-01T00:33:41.369Z,29.17
2022-12-01T00:38:43.658Z,24.13
2022-12-01T00:43:45.721Z,29.20
2022-12-01T00:48:48.182Z,26.57
2022-12-01T00:53:50.364Z,27.83
2022-12-01T00:58:52.545Z,30.15
2022-12-01T01:03:54.643Z,32.90
2022-12-01T01:08:56.742Z,31.85
2022-12-01T01:13:59.611Z,25.87
2022-12-01T01:19:01.693Z,25.23
2022-12-01T01:24:04.000Z,26.87
2022-12-01T01:29:07.783Z,26.13
2022-12-01T01:34:09.876Z,28.87
2022-12-01T01:39:12.009Z,24.47
2022-12-01T01:44:45.323Z,25.35
2022-12-01T01:49:48.884Z,22.48
2022-12-01T01:54:53.921Z,25.30
2022-12-01T02:00:02.255Z,25.75
2022-12-01T02:05:10.951Z,23.97
2022-12-01T02:10:14.718Z,23.83
2022-12-01T02:15:19.849Z,23.42
2022-12-01T02:20:59.657Z,24.07
2022-12-01T02:26:29.701Z,25.23
2022-12-01T02:32:05.211Z,24.10
2022-12-01T02:37:13.118Z,25.23
2022-12-01T02:42:40.284Z,22.62
2022-12-01T02:47:44.841Z,23.10
2022-12-01T02:52:47.731Z,22.13
2022-12-01T02:57:49.801Z,26.03
2022-12-01T03:03:26.753Z,25.90
2022-12-01T03:08:34.603Z,29.73
2022-12-01T03:14:11.345Z,23.53
2022-12-01T03:19:23.098Z,27.08
2022-12-01T03:24:29.446Z,27.97
2022-12-01T03:29:43.491Z,26.42
2022-12-01T03:34:59.592Z,24.55
2022-12-01T03:40:06.392Z,25.47
2022-12-01T03:45:16.147Z,24.70
2022-12-01T03:50:18.970Z,28.70
2022-12-01T03:55:24.847Z,24.83
2022-12-01T04:00:27.098Z,29.27
2022-12-01T04:05:29.856Z,26.00
2022-12-01T04:10:33.102Z,26.52
2022-12-01T04:15:35.181Z,22.40
2022-12-01T04:20:37.318Z,24.30
2022-12-01T04:25:39.387Z,22.58
2022-12-01T04:30:41.459Z,27.37
2022-12-01T04:35:43.567Z,25.95
2022-12-01T04:40:45.649Z,25.73
2022-12-01T04:45:48.369Z,27.60
2022-12-01T04:50:50.540Z,23.70
2022-12-01T04:55:52.651Z,27.67
2022-12-01T05:00:54.933Z,25.75
2022-12-01T05:06:09.362Z,25.53
2022-12-01T05:11:13.389Z,26.10
2022-12-01T05:16:22.317Z,27.17
2022-12-01T05:21:24.501Z,29.53
2022-12-01T05:26:26.599Z,27.20
2022-12-01T05:31:28.877Z,29.50
2022-12-01T05:36:31.575Z,30.73
2022-12-01T05:41:33.670Z,27.80
2022-12-01T05:46:35.769Z,31.17
2022-12-01T05:51:37.851Z,33.40
2022-12-01T05:56:39.964Z,28.07
2022-12-01T06:01:42.141Z,33.90
2022-12-01T06:06:44.570Z,31.90
2022-12-01T06:11:51.220Z,32.70
2022-12-01T06:16:54.572Z,39.40
2022-12-01T06:22:03.698Z,38.07
2022-12-01T06:27:06.064Z,43.72
2022-12-01T06:32:08.207Z,39.47
2022-12-01T06:37:11.427Z,45.60
2022-12-01T06:42:13.596Z,43.78
2022-12-01T06:47:16.019Z,34.37
2022-12-01T06:52:18.175Z,38.78
2022-12-01T06:57:20.403Z,44.42
2022-12-01T07:02:23.169Z,38.47
2022-12-01T07:07:25.485Z,39.28
2022-12-01T07:12:31.607Z,39.53
2022-12-01T07:17:34.701Z,35.28
2022-12-01T07:22:36.797Z,38.30
2022-12-01T07:27:38.889Z,38.63
2022-12-01T07:32:40.998Z,36.60
2022-12-01T07:37:43.089Z,35.97
2022-12-01T07:42:45.205Z,36.10
2022-12-01T07:47:47.298Z,35.35
2022-12-01T07:52:50.927Z,35.13
2022-12-01T07:57:53.683Z,32.70
2022-12-01T08:02:55.797Z,31.67
2022-12-01T08:07:57.916Z,33.50
2022-12-01T08:13:00.147Z,32.67
2022-12-01T08:18:02.503Z,34.17
2022-12-01T08:23:04.938Z,38.58
2022-12-01T08:28:07.143Z,33.83
2022-12-01T08:33:09.241Z,36.47
2022-12-01T08:38:12.242Z,34.25
2022-12-01T08:43:34.796Z,33.57
2022-12-01T08:48:36.865Z,32.47
2022-12-01T08:53:45.524Z,33.73
2022-12-01T08:58:48.057Z,35.28
2022-12-01T09:04:05.647Z,32.63
2022-12-01T09:09:12.561Z,32.90
2022-12-01T09:14:16.927Z,32.53
2022-12-01T09:19:23.956Z,36.10
2022-12-01T09:24:26.650Z,36.30
2022-12-01T09:29:29.355Z,36.95
2022-12-01T09:34:31.552Z,34.97
2022-12-01T09:39:33.734Z,33.47
2022-12-01T09:44:44.044Z,33.63
2022-12-01T09:50:06.961Z,32.00
2022-12-01T09:55:13.744Z,35.90
2022-12-01T10:00:21.131Z,29.03
2022-12-01T10:05:26.858Z,29.27
2022-12-01T10:10:34.547Z,30.33
2022-12-01T10:16:08.835Z,32.03
2022-12-01T10:21:40.155Z,27.98
2022-12-01T10:27:04.105Z,25.43
2022-12-01T10:32:20.563Z,25.73
2022-12-01T10:37:26.380Z,22.77
2022-12-01T10:42:36.862Z,24.77
2022-12-01T10:48:15.915Z,26.95
2022-12-01T10:53:28.288Z,25.50
2022-12-01T10:58:33.857Z,23.70
2022-12-01T11:03:36.942Z,23.00
2022-12-01T11:08:40.668Z,22.65
2022-12-01T11:13:43.375Z,20.70
2022-12-01T11:18:45.514Z,22.43
2022-12-01T11:23:50.568Z,20.88
2022-12-01T11:29:04.742Z,19.27
2022-12-01T11:34:20.652Z,21.08
2022-12-01T11:39:25.510Z,22.87
2022-12-01T11:44:50.356Z,20.00
2022-12-01T11:50:00.076Z,22.15
2022-12-01T11:55:11.166Z,22.23
2022-12-01T12:00:13.860Z,21.75
2022-12-01T12:05:40.374Z,20.62
2022-12-01T12:11:19.452Z,20.63
2022-12-01T12:16:56.752Z,22.08
2022-12-01T12:22:10.962Z,20.93
2022-12-01T12:27:34.886Z,21.55
2022-12-01T12:33:04.309Z,19.45
2022-12-01T12:38:15.457Z,20.27
2022-12-01T12:43:56.668Z,19.33
2022-12-01T12:49:25.668Z,18.03
2022-12-01T12:54:33.809Z,18.20
2022-12-01T12:59:52.009Z,19.00
2022-12-01T13:05:16.857Z,21.50
2022-12-01T13:10:35.740Z,20.10
2022-12-01T13:15:39.093Z,18.73
2022-12-01T13:20:41.727Z,20.85
2022-12-01T13:25:47.842Z,18.37
2022-12-01T13:31:18.184Z,18.27
2022-12-01T13:36:45.721Z,19.35
2022-12-01T13:41:45.468Z,20.90
2022-12-01T13:46:47.613Z,19.35
2022-12-01T13:52:21.077Z,19.98
2022-12-01T13:57:27.805Z,18.13
2022-12-01T14:02:33.141Z,22.85
2022-12-01T14:07:38.321Z,19.47
2022-12-01T14:12:46.020Z,18.40
2022-12-01T14:17:58.391Z,19.42
2022-12-01T14:23:36.223Z,17.07
2022-12-01T14:29:01.491Z,18.62
2022-12-01T14:34:13.155Z,17.37
2022-12-01T14:39:35.174Z,20.37
2022-12-01T14:44:49.797Z,18.35
2022-12-01T14:50:11.897Z,18.10
2022-12-01T14:55:21.151Z,22.10
2022-12-01T15:00:25.116Z,26.53
2022-12-01T15:05:29.557Z,26.20
2022-12-01T15:10:37.191Z,26.95
2022-12-01T15:15:53.432Z,25.67
2022-12-01T15:21:03.940Z,27.00
2022-12-01T15:26:06.989Z,25.20
2022-12-01T15:31:13.092Z,24.65
2022-12-01T15:36:15.766Z,26.10
2022-12-01T15:41:30.663Z,22.80
2022-12-01T15:46:36.970Z,26.02
2022-12-01T15:51:39.084Z,26.80
2022-12-01T15:56:41.461Z,24.25
2022-12-01T16:01:44.665Z,24.10
2022-12-01T16:07:16.038Z,30.30
2022-12-01T16:12:18.063Z,25.83
2022-12-01T16:17:20.835Z,25.53
2022-12-01T16:22:23.139Z,28.48
2022-12-01T16:27:30.385Z,26.55
2022-12-01T16:32:35.155Z,25.73
2022-12-01T16:37:37.253Z,28.85
2022-12-01T16:42:39.733Z,28.40
2022-12-01T16:47:42.719Z,32.88
2022-12-01T16:52:45.892Z,33.90
2022-12-01T16:57:48.296Z,29.70
2022-12-01T17:02:51.016Z,27.60
2022-12-01T17:07:53.466Z,30.80
2022-12-01T17:12:55.612Z,25.27
2022-12-01T17:17:57.736Z,29.50
2022-12-01T17:22:59.885Z,28.87
2022-12-01T17:28:02.027Z,31.95
2022-12-01T17:33:04.305Z,31.97
2022-12-01T17:38:06.860Z,29.70
2022-12-01T17:43:09.333Z,29.87
2022-12-01T17:48:11.425Z,34.00
2022-12-01T17:53:13.574Z,34.45
2022-12-01T17:58:18.215Z,30.97
2022-12-01T18:03:21.407Z,30.95
2022-12-01T18:08:25.552Z,33.25
2022-12-01T18:13:27.969Z,34.47
2022-12-01T18:18:30.133Z,38.00
2022-12-01T18:23:32.378Z,39.07
2022-12-01T18:28:35.136Z,37.92
2022-12-01T18:33:40.242Z,39.50
2022-12-01T18:38:42.328Z,40.20
2022-12-01T18:43:45.102Z,41.22
2022-12-01T18:48:49.457Z,42.60
2022-12-01T18:53:54.614Z,45.63
2022-12-01T18:58:58.760Z,41.45
2022-12-01T19:04:02.066Z,39.87
2022-12-01T19:09:06.301Z,41.08
2022-12-01T19:14:16.425Z,45.73
2022-12-01T19:19:18.776Z,41.97
2022-12-01T19:24:20.999Z,42.05
2022-12-01T19:29:23.262Z,40.57
2022-12-01T19:34:26.072Z,43.22
2022-12-01T19:39:28.428Z,44.63
2022-12-01T19:44:31.837Z,44.83
2022-12-01T19:49:36.547Z,49.75
2022-12-01T19:54:39.292Z,46.37
2022-12-01T19:59:41.536Z,47.75
2022-12-01T20:04:43.773Z,47.07
2022-12-01T20:09:49.910Z,49.97
2022-12-01T20:14:52.716Z,51.70
2022-12-01T20:19:55.203Z,44.63
2022-12-01T20:24:57.344Z,50.83
2022-12-01T20:29:59.857Z,47.37
2022-12-01T20:35:02.055Z,51.30
2022-12-01T20:40:04.665Z,47.83
2022-12-01T20:45:07.527Z,45.50
2022-12-01T20:50:10.269Z,48.75
2022-12-01T20:55:12.388Z,49.87
2022-12-01T21:00:15.067Z,49.05
2022-12-01T21:05:17.231Z,49.92
2022-12-01T21:10:20.358Z,49.57
2022-12-01T21:15:31.411Z,54.83
2022-12-01T21:20:39.312Z,50.43
2022-12-01T21:25:42.610Z,49.92
2022-12-01T21:30:46.334Z,55.00
2022-12-01T21:35:51.761Z,54.00
2022-12-01T21:40:54.250Z,56.72
2022-12-01T21:46:00.718Z,57.53
2022-12-01T21:51:12.178Z,57.70
2022-12-01T21:56:34.521Z,56.25
2022-12-01T22:01:36.837Z,54.53
2022-12-01T22:06:43.250Z,51.80
2022-12-01T22:11:49.371Z,51.00
2022-12-01T22:17:09.134Z,55.78
2022-12-01T22:22:11.688Z,52.72
2022-12-01T22:27:39.276Z,53.80
2022-12-01T22:32:56.193Z,56.03
2022-12-01T22:37:59.828Z,53.60
2022-12-01T22:43:17.274Z,56.30
2022-12-01T22:48:22.263Z,50.03
2022-12-01T22:53:31.317Z,51.20
2022-12-01T22:58:39.838Z,55.83
2022-12-01T23:03:41.919Z,55.00
2022-12-01T23:08:44.017Z,51.37
2022-12-01T23:13:46.091Z,60.08
2022-12-01T23:18:48.139Z,49.27
2022-12-01T23:23:50.259Z,51.33
2022-12-01T23:28:52.339Z,51.27
2022-12-01T23:33:54.488Z,55.15
2022-12-01T23:39:01.446Z,52.28
2022-12-01T23:44:40.731Z,51.87
2022-12-01T23:49:44.785Z,50.28
2022-12-01T23:54:47.403Z,54.00
2022-12-01T23:59:56.298Z,55.25
